createdAt,value
2022-08-03T04:06:55.215Z,20.59
2022-08-03T04:09:09.535Z,20.66
2022-08-03T04:11:29.448Z,20.82
2022-08-03T04:13:40.224Z,21.030001
2022-08-03T04:15:54.666Z,21.25
2022-08-03T04:18:09.040Z,21.440001
2022-08-03T04:20:24.462Z,21.610001
2022-08-03T04:22:38.799Z,21.73
2022-08-03T04:24:53.206Z,21.860001
2022-08-03T04:27:07.630Z,21.98
2022-08-03T04:29:21.958Z,22.1
2022-08-03T04:31:36.292Z,22.209999
2022-08-03T04:33:50.694Z,22.290001
2022-08-03T04:36:05.045Z,22.370001
2022-08-03T04:38:19.465Z,22.42
2022-08-03T04:40:33.844Z,22.450001
2022-08-03T04:42:48.233Z,22.48
2022-08-03T04:45:02.581Z,22.51
2022-08-03T04:47:17.018Z,22.530001
2022-08-03T04:49:31.418Z,22.540001
2022-08-03T04:51:45.763Z,22.540001
2022-08-03T04:54:00.174Z,22.530001
2022-08-03T04:56:14.490Z,22.52
2022-08-03T04:58:28.917Z,22.52
2022-08-03T05:00:43.379Z,22.530001
2022-08-03T05:02:58.671Z,22.540001
2022-08-03T05:05:15.097Z,22.540001
2022-08-03T05:07:36.520Z,22.540001
2022-08-03T05:09:50.314Z,22.549999
2022-08-03T05:12:04.249Z,22.57
2022-08-03T05:14:18.590Z,22.58
2022-08-03T05:16:35.915Z,22.59
2022-08-03T05:18:51.289Z,22.620001
2022-08-03T05:21:05.659Z,22.639999
2022-08-03T05:23:20.065Z,22.66
2022-08-03T05:25:34.494Z,22.67
2022-08-03T05:27:50.850Z,22.690001
2022-08-03T05:30:26.383Z,22.73
2022-08-03T05:32:22.750Z,22.77
2022-08-03T05:34:37.190Z,22.809999
2022-08-03T05:36:52.543Z,22.879999
2022-08-03T05:39:06.951Z,22.940001
2022-08-03T05:41:36.729Z,23
2022-08-03T05:43:38.765Z,23.059999
2022-08-03T05:46:11.498Z,23.110001
2022-08-03T05:48:10.543Z,23.15
2022-08-03T05:50:25.263Z,23.17
2022-08-03T05:52:39.774Z,23.18
2022-08-03T05:54:55.274Z,23.18
2022-08-03T05:57:08.401Z,23.18
2022-08-03T05:59:37.833Z,23.209999
2022-08-03T06:01:40.389Z,23.26
2022-08-03T06:03:54.752Z,23.299999
2022-08-03T06:06:09.158Z,23.35
2022-08-03T06:08:24.526Z,23.41
2022-08-03T06:10:39.252Z,23.5
2022-08-03T06:12:54.571Z,23.59
2022-08-03T06:15:11.219Z,23.68
2022-08-03T06:17:23.285Z,23.75
2022-08-03T06:19:41.040Z,23.809999
2022-08-03T06:21:56.276Z,23.870001
2022-08-03T06:24:11.651Z,23.92
2022-08-03T06:26:27.012Z,23.98
2022-08-03T06:28:51.293Z,24.040001
2022-08-03T06:30:58.768Z,24.08
2022-08-03T06:33:14.184Z,24.1
2022-08-03T06:35:28.554Z,24.129999
2022-08-03T06:37:44.935Z,24.190001
2022-08-03T06:39:59.289Z,24.24
2022-08-03T06:42:14.140Z,24.309999
2022-08-03T06:44:30.244Z,24.389999
2022-08-03T06:46:44.689Z,24.48
2022-08-03T06:48:59.094Z,24.57
2022-08-03T06:51:13.492Z,24.639999
2022-08-03T06:53:28.220Z,24.68
2022-08-03T06:55:42.629Z,24.709999
2022-08-03T06:58:03.167Z,24.74
2022-08-03T07:00:14.336Z,24.77
2022-08-03T07:02:28.757Z,24.83
2022-08-03T07:04:43.090Z,24.92
2022-08-03T07:06:57.498Z,25.02
2022-08-03T07:09:12.857Z,25.139999
2022-08-03T07:11:27.309Z,25.26
2022-08-03T07:13:41.727Z,25.370001
2022-08-03T07:15:56.790Z,25.459999
2022-08-03T07:18:10.804Z,25.530001
2022-08-03T07:20:25.158Z,25.620001
2022-08-03T07:22:41.494Z,25.700001
2022-08-03T07:24:55.952Z,25.780001
2022-08-03T07:27:10.308Z,25.85
2022-08-03T07:29:24.705Z,25.92
2022-08-03T07:31:42.163Z,26
2022-08-03T07:33:56.574Z,26.09
2022-08-03T07:36:10.928Z,26.17
2022-08-03T07:38:25.285Z,26.24
2022-08-03T07:40:43.201Z,26.309999
2022-08-03T07:42:55.121Z,26.389999
2022-08-03T07:45:09.474Z,26.469999
2022-08-03T07:47:25.925Z,26.549999
2022-08-03T07:49:43.250Z,26.610001
2022-08-03T07:51:57.559Z,26.68
2022-08-03T07:54:11.983Z,26.77
2022-08-03T07:56:26.336Z,26.860001
2022-08-03T07:58:40.703Z,26.950001
2022-08-03T08:00:55.094Z,27.030001
2022-08-03T08:03:09.434Z,27.110001
2022-08-03T08:05:23.833Z,27.200001
2022-08-03T08:07:38.249Z,27.280001
2022-08-03T08:09:53.886Z,27.379999
2022-08-03T08:12:12.382Z,27.459999
2022-08-03T08:14:24.623Z,27.549999
2022-08-03T08:16:38.948Z,27.639999
2022-08-03T08:18:53.375Z,27.719999
2022-08-03T08:21:08.076Z,27.809999
2022-08-03T08:23:37.707Z,27.879999
2022-08-03T08:25:39.523Z,27.940001
2022-08-03T08:28:21.938Z,28.01
2022-08-03T08:30:13.094Z,28.08
2022-08-03T08:32:27.670Z,28.15
2022-08-03T08:34:43.174Z,28.209999
2022-08-03T08:36:57.534Z,28.26
2022-08-03T08:39:11.897Z,28.32
2022-08-03T08:41:32.213Z,28.379999
2022-08-03T08:43:42.671Z,28.440001
2022-08-03T08:45:57.064Z,28.5
2022-08-03T08:48:11.403Z,28.540001
2022-08-03T08:50:27.540Z,28.57
2022-08-03T08:52:40.110Z,28.59
2022-08-03T08:54:54.500Z,28.610001
2022-08-03T08:57:26.717Z,28.66
2022-08-03T08:59:27.222Z,28.73
2022-08-03T09:01:44.531Z,28.76
2022-08-03T09:03:58.932Z,28.799999
2022-08-03T09:06:13.275Z,28.83
2022-08-03T09:08:27.640Z,28.870001
2022-08-03T09:10:41.993Z,28.9
2022-08-03T09:12:56.412Z,28.93
2022-08-03T09:15:16.796Z,28.969999
2022-08-03T09:17:27.075Z,29
2022-08-03T09:19:41.407Z,29.049999
2022-08-03T09:21:58.705Z,29.09
2022-08-03T09:24:25.859Z,29.120001
2022-08-03T09:26:30.372Z,29.17
2022-08-03T09:28:52.974Z,29.23
2022-08-03T09:31:02.065Z,29.32
2022-08-03T09:33:16.473Z,29.43
2022-08-03T09:35:52.952Z,29.530001
2022-08-03T09:38:08.612Z,29.620001
2022-08-03T09:40:05.545Z,29.700001
2022-08-03T09:42:23.677Z,29.77
2022-08-03T09:44:34.380Z,29.799999
2022-08-03T09:46:49.977Z,29.799999
2022-08-03T09:49:03.230Z,29.809999
2022-08-03T09:51:33.473Z,29.84
2022-08-03T09:53:36.855Z,29.879999
2022-08-03T09:56:31.004Z,29.91
2022-08-03T09:58:11.490Z,29.92
2022-08-03T10:00:27.013Z,29.959999
2022-08-03T10:02:41.375Z,30.030001
2022-08-03T10:04:55.871Z,30.09
2022-08-03T10:07:10.201Z,30.139999
2022-08-03T10:09:24.598Z,30.190001
2022-08-03T10:11:41.886Z,30.209999
2022-08-03T10:13:58.085Z,30.23
2022-08-03T10:16:20.537Z,30.26
2022-08-03T10:18:28.011Z,30.299999
2022-08-03T10:20:43.539Z,30.34
2022-08-03T10:22:57.899Z,30.4
2022-08-03T10:25:12.271Z,30.48
2022-08-03T10:27:26.589Z,30.57
2022-08-03T10:29:40.989Z,30.67
2022-08-03T10:31:57.961Z,30.76
2022-08-03T10:34:10.734Z,30.860001
2022-08-03T10:36:25.106Z,30.940001
2022-08-03T10:38:41.457Z,30.99
2022-08-03T10:40:59.018Z,31.059999
2022-08-03T10:43:10.211Z,31.110001
2022-08-03T10:45:24.547Z,31.139999
2022-08-03T10:47:38.928Z,31.15
2022-08-03T10:49:54.354Z,31.200001
2022-08-03T10:52:13.256Z,31.27
2022-08-03T10:54:25.959Z,31.360001
2022-08-03T10:56:45.123Z,31.459999
2022-08-03T10:58:58.125Z,31.549999
2022-08-03T11:01:13.997Z,31.629999
2022-08-03T11:03:28.349Z,31.690001
2022-08-03T11:05:42.783Z,31.74
2022-08-03T11:07:57.127Z,31.780001
2022-08-03T11:10:11.622Z,31.799999
2022-08-03T11:12:30.984Z,31.799999
2022-08-03T11:14:41.218Z,31.799999
2022-08-03T11:16:56.575Z,31.82
2022-08-03T11:19:10.931Z,31.870001
2022-08-03T11:21:28.840Z,31.969999
2022-08-03T11:24:03.911Z,32.07
2022-08-03T11:25:57.941Z,32.130001
2022-08-03T11:28:12.317Z,32.169998
2022-08-03T11:30:28.656Z,32.189999
2022-08-03T11:32:46.656Z,32.209999
2022-08-03T11:34:58.354Z,32.23
2022-08-03T11:37:12.753Z,32.279999
2022-08-03T11:39:27.030Z,32.330002
2022-08-03T11:41:42.708Z,32.349998
2022-08-03T11:43:55.766Z,32.369999
2022-08-03T11:46:10.111Z,32.43
2022-08-03T11:48:27.463Z,32.52
2022-08-03T11:50:42.847Z,32.599998
2022-08-03T11:52:57.185Z,32.669998
2022-08-03T11:55:11.573Z,32.73
2022-08-03T11:59:00.615Z,32.799999
2022-08-03T11:59:43.286Z,32.900002
2022-08-03T12:01:57.685Z,33.009998
2022-08-03T12:04:12.045Z,33.099998
2022-08-03T12:06:26.402Z,33.18
2022-08-03T12:08:40.780Z,33.259998
2022-08-03T12:10:55.143Z,33.32
2022-08-03T12:13:57.183Z,33.419998
2022-08-03T12:15:26.824Z,33.540001
2022-08-03T12:17:41.167Z,33.639999
2022-08-03T12:19:55.681Z,33.75
2022-08-03T12:22:09.994Z,33.889999
2022-08-03T12:24:24.405Z,34.029999
2022-08-03T12:26:38.759Z,34.130001
2022-08-03T12:28:55.060Z,34.240002
2022-08-03T12:31:09.614Z,34.369999
2022-08-03T12:33:23.772Z,34.549999
2022-08-03T12:35:38.114Z,34.740002
2022-08-03T12:37:55.483Z,34.869999
2022-08-03T12:40:10.862Z,34.939999
2022-08-03T12:42:27.179Z,35.009998
2022-08-03T12:44:42.568Z,35.099998
2022-08-03T12:46:59.899Z,35.150002
2022-08-03T12:49:14.361Z,35.209999
2022-08-03T12:51:28.655Z,35.27
2022-08-03T12:53:43.132Z,35.349998
2022-08-03T12:56:05.561Z,35.48
2022-08-03T12:58:18.661Z,35.630001
2022-08-03T13:00:31.391Z,35.779999
2022-08-03T13:02:46.302Z,35.950001
2022-08-03T13:05:02.907Z,36.119999
2022-08-03T13:07:18.018Z,36.279999
2022-08-03T13:09:31.650Z,36.360001
2022-08-03T13:11:53.669Z,36.419998
2022-08-03T13:14:03.421Z,36.509998
2022-08-03T13:16:19.738Z,36.57
2022-08-03T13:18:34.104Z,36.650002
2022-08-03T13:20:49.421Z,36.77
2022-08-03T13:23:03.793Z,36.91
2022-08-03T13:25:21.129Z,36.939999
2022-08-03T13:28:02.803Z,36.93
2022-08-03T13:29:52.831Z,36.970001
2022-08-03T13:32:07.198Z,37.080002
2022-08-03T13:34:23.699Z,37.200001
2022-08-03T13:36:59.373Z,37.310001
2022-08-03T13:38:53.345Z,37.349998
2022-08-03T13:41:09.647Z,37.32
2022-08-03T13:43:24.991Z,37.25
2022-08-03T13:45:39.340Z,37.25
2022-08-03T13:47:56.671Z,37.32
2022-08-03T13:50:11.061Z,37.41
2022-08-03T13:52:25.474Z,37.490002
2022-08-03T13:54:39.876Z,37.619999
2022-08-03T13:57:00.413Z,37.779999
2022-08-03T13:59:13.538Z,37.900002
2022-08-03T14:01:53.925Z,37.98
2022-08-03T14:03:45.261Z,38.040001
2022-08-03T14:05:59.644Z,38.119999
2022-08-03T14:08:13.994Z,38.189999
2022-08-03T14:10:28.496Z,38.240002
2022-08-03T14:12:42.850Z,38.279999
2022-08-03T14:14:59.716Z,38.310001
2022-08-03T14:17:11.574Z,38.400002
2022-08-03T14:19:25.922Z,38.459999
2022-08-03T14:21:41.301Z,38.5
2022-08-03T14:23:58.649Z,38.5
2022-08-03T14:26:13.050Z,38.470001
2022-08-03T14:28:27.418Z,38.490002
2022-08-03T14:30:42.766Z,38.52
2022-08-03T14:33:00.692Z,38.59
2022-08-03T14:35:11.477Z,38.669998
2022-08-03T14:37:25.847Z,38.75
2022-08-03T14:41:57.496Z,38.91
2022-08-03T14:44:11.945Z,38.990002
2022-08-03T14:46:26.307Z,39.060001
2022-08-03T14:50:10.646Z,39.080002
2022-08-03T14:50:58.031Z,39.049999
2022-08-03T14:53:12.373Z,39.09
2022-08-03T14:55:26.764Z,39.189999
2022-08-03T14:57:44.087Z,39.290001
2022-08-03T14:59:59.459Z,39.419998
2022-08-03T15:02:18.541Z,39.57
2022-08-03T15:04:31.113Z,39.720001
2022-08-03T15:06:45.463Z,39.880001
2022-08-03T15:09:21.035Z,39.990002
2022-08-03T15:11:18.151Z,40.049999
2022-08-03T15:13:32.539Z,40.07
2022-08-03T15:15:46.877Z,40.049999
2022-08-03T15:18:01.260Z,40.029999
2022-08-03T15:20:24.272Z,40.049999
2022-08-03T15:22:34.502Z,40.09
2022-08-03T15:24:47.282Z,40.119999
2022-08-03T15:27:01.665Z,40.150002
2022-08-03T15:30:04.456Z,40.220001
2022-08-03T15:31:33.333Z,40.23
2022-08-03T15:33:47.705Z,40.18
2022-08-03T15:36:02.053Z,40.139999
2022-08-03T15:38:16.415Z,40.150002
2022-08-03T15:40:31.779Z,40.150002
2022-08-03T15:42:46.146Z,40.130001
2022-08-03T15:45:00.516Z,40.110001
2022-08-03T15:47:14.897Z,40.099998
2022-08-03T15:49:29.241Z,40.07
2022-08-03T15:51:44.606Z,40.040001
2022-08-03T15:53:58.975Z,40.029999
2022-08-03T15:56:18.208Z,39.990002
2022-08-03T15:58:59.223Z,39.970001
2022-08-03T16:00:46.023Z,39.970001
2022-08-03T16:03:00.400Z,39.98
2022-08-03T16:05:14.798Z,39.98
2022-08-03T16:07:29.203Z,39.950001
2022-08-03T16:09:44.127Z,39.91
2022-08-03T16:11:58.152Z,39.91
2022-08-03T16:14:31.254Z,39.93
2022-08-03T16:16:29.905Z,39.939999
2022-08-03T16:18:44.290Z,39.950001
2022-08-03T16:20:58.683Z,39.91
2022-08-03T16:23:14.053Z,39.869999
2022-08-03T16:25:29.638Z,39.810001
2022-08-03T16:27:56.600Z,39.799999
2022-08-03T16:30:01.437Z,39.799999
2022-08-03T16:32:15.796Z,39.830002
2022-08-03T16:34:30.232Z,39.82
2022-08-03T16:36:44.567Z,39.779999
2022-08-03T16:38:59.005Z,39.700001
2022-08-03T16:41:13.321Z,39.669998
2022-08-03T16:43:27.796Z,39.68
2022-08-03T16:45:42.240Z,39.700001
2022-08-03T16:48:01.354Z,39.669998
2022-08-03T16:50:17.433Z,39.52
2022-08-03T16:52:28.592Z,39.360001
2022-08-03T16:54:44.208Z,39.23
2022-08-03T16:57:02.129Z,39.18
2022-08-03T16:59:18.604Z,39.130001
2022-08-03T17:01:37.869Z,39.080002
2022-08-03T17:03:57.482Z,39.029999
2022-08-03T17:06:09.276Z,38.950001
2022-08-03T17:08:26.096Z,38.869999
2022-08-03T17:10:38.865Z,38.790001
2022-08-03T17:12:54.313Z,38.669998
2022-08-03T17:15:10.553Z,38.52
2022-08-03T17:17:24.190Z,38.400002
2022-08-03T17:19:41.627Z,38.299999
2022-08-03T17:21:58.967Z,38.220001
2022-08-03T17:24:14.333Z,38.150002
2022-08-03T17:26:30.781Z,38.080002
2022-08-03T17:28:49.871Z,38.02
2022-08-03T17:31:03.606Z,37.970001
2022-08-03T17:33:20.893Z,37.880001
2022-08-03T17:35:38.364Z,37.77
2022-08-03T17:37:58.762Z,37.669998
2022-08-03T17:40:10.137Z,37.529999
2022-08-03T17:42:29.731Z,37.380001
2022-08-03T17:44:46.489Z,37.200001
2022-08-03T17:46:58.272Z,36.970001
2022-08-03T17:49:23.844Z,36.700001
2022-08-03T17:51:32.025Z,36.380001
2022-08-03T17:53:49.440Z,36.049999
2022-08-03T17:56:06.566Z,35.77
2022-08-03T17:58:22.095Z,35.5
2022-08-03T18:00:42.746Z,35.25
2022-08-03T18:02:53.097Z,35.009998
2022-08-03T18:05:16.169Z,34.779999
2022-08-03T18:07:40.804Z,34.560001
2022-08-03T18:10:02.797Z,34.330002
2022-08-03T18:12:01.535Z,34.110001
2022-08-03T18:14:17.932Z,33.900002
2022-08-03T18:16:33.330Z,33.700001
2022-08-03T18:18:48.720Z,33.52
2022-08-03T18:21:04.515Z,33.34
2022-08-03T18:23:25.600Z,33.18
2022-08-03T18:25:43.196Z,33.029999
2022-08-03T18:27:55.600Z,32.880001
2022-08-03T18:30:11.974Z,32.720001
2022-08-03T18:32:25.700Z,32.57
2022-08-03T18:34:53.213Z,32.41
2022-08-03T18:36:59.202Z,32.259998
2022-08-03T18:39:16.573Z,32.110001
2022-08-03T18:41:33.072Z,31.98
2022-08-03T18:43:58.195Z,31.860001
2022-08-03T18:46:04.768Z,31.75
2022-08-03T18:48:19.116Z,31.639999
2022-08-03T18:50:35.478Z,31.549999
2022-08-03T18:52:53.399Z,31.450001
2022-08-03T18:55:14.279Z,31.34
2022-08-03T18:57:30.170Z,31.23
2022-08-03T18:59:42.006Z,31.129999
2022-08-03T19:02:01.161Z,31.049999
2022-08-03T19:04:14.016Z,30.98
2022-08-03T19:06:31.722Z,30.91
2022-08-03T19:08:46.308Z,30.82
2022-08-03T19:11:01.021Z,30.74
2022-08-03T19:13:16.218Z,30.67
2022-08-03T19:15:41.414Z,30.59
2022-08-03T19:17:53.809Z,30.52
2022-08-03T19:20:09.435Z,30.459999
2022-08-03T19:22:25.157Z,30.4
2022-08-03T19:24:40.464Z,30.34
2022-08-03T19:26:55.601Z,30.280001
2022-08-03T19:29:16.911Z,30.219999
2022-08-03T19:31:34.783Z,30.15
2022-08-03T19:33:56.204Z,30.1
2022-08-03T19:36:10.640Z,30.07
2022-08-03T19:38:27.750Z,30.040001
2022-08-03T19:40:39.721Z,30.02
2022-08-03T19:42:57.094Z,29.98
2022-08-03T19:45:14.627Z,29.940001
2022-08-03T19:47:29.462Z,29.9
2022-08-03T19:49:49.627Z,29.870001
2022-08-03T19:52:06.113Z,29.84
2022-08-03T19:54:25.323Z,29.82
2022-08-03T19:56:39.509Z,29.799999
2022-08-03T19:58:55.312Z,29.77
2022-08-03T20:01:19.078Z,29.76
2022-08-03T20:03:43.192Z,29.75
2022-08-03T20:05:52.117Z,29.74
2022-08-03T20:08:03.024Z,29.719999
2022-08-03T20:10:18.452Z,29.68
2022-08-03T20:12:38.701Z,29.629999
2022-08-03T20:14:49.306Z,29.58
2022-08-03T20:17:04.933Z,29.540001
2022-08-03T20:19:21.003Z,29.51
2022-08-03T20:21:38.560Z,29.49
2022-08-03T20:24:01.595Z,29.459999
2022-08-03T20:26:13.309Z,29.440001
2022-08-03T20:28:28.463Z,29.4
2022-08-03T20:30:44.534Z,29.360001
2022-08-03T20:32:59.888Z,29.34
2022-08-03T20:35:14.299Z,29.33
2022-08-03T20:37:30.619Z,29.309999
2022-08-03T20:39:48.355Z,29.280001
2022-08-03T20:42:00.712Z,29.25
2022-08-03T20:44:16.087Z,29.24
2022-08-03T20:46:46.631Z,29.25
2022-08-03T20:48:51.154Z,29.25
2022-08-03T20:51:11.110Z,29.26
2022-08-03T20:53:41.359Z,29.26
2022-08-03T20:55:47.346Z,29.26
2022-08-03T20:57:59.356Z,29.26
2022-08-03T21:00:14.148Z,29.27
2022-08-03T21:02:31.506Z,29.27
2022-08-03T21:04:48.000Z,29.27
2022-08-03T21:07:02.919Z,29.27
2022-08-03T21:09:20.890Z,29.27
2022-08-03T21:11:38.913Z,29.26
2022-08-03T21:13:54.603Z,29.24
2022-08-03T21:16:13.290Z,29.209999
2022-08-03T21:18:24.728Z,29.17
2022-08-03T21:20:39.282Z,29.129999
2022-08-03T21:22:53.958Z,29.08
2022-08-03T21:25:08.590Z,29.030001
2022-08-03T21:27:23.622Z,28.98
2022-08-03T21:29:52.853Z,28.950001
